createdAt,value
2022-12-09T00:01:37.922Z,-1.53
2022-12-09T00:04:04.886Z,-1.49
2022-12-09T00:06:31.890Z,-1.53
2022-12-09T00:08:59.197Z,-1.53
2022-12-09T00:11:26.213Z,-1.52
2022-12-09T00:13:55.638Z,-1.57
2022-12-09T00:16:23.452Z,-1.62
2022-12-09T00:18:50.580Z,-1.63
2022-12-09T00:21:23.625Z,-1.59
2022-12-09T00:23:52.261Z,-1.54
2022-12-09T00:26:20.587Z,-1.54
2022-12-09T00:28:49.023Z,-1.56
2022-12-09T00:31:18.907Z,-1.56
2022-12-09T00:33:46.439Z,-1.59
2022-12-09T00:36:16.122Z,-1.61
2022-12-09T00:38:43.301Z,-1.54
2022-12-09T00:41:10.615Z,-1.52
2022-12-09T00:43:37.581Z,-1.49
2022-12-09T00:46:04.636Z,-1.52
2022-12-09T00:48:34.244Z,-1.53
2022-12-09T00:51:01.541Z,-1.61
2022-12-09T00:53:29.257Z,-1.66
2022-12-09T00:55:55.871Z,-1.67
2022-12-09T00:58:23.012Z,-1.68
2022-12-09T01:00:50.728Z,-1.65
2022-12-09T01:03:18.747Z,-1.75
2022-12-09T01:05:45.874Z,-1.69
2022-12-09T01:08:13.631Z,-1.79
2022-12-09T01:10:42.523Z,-1.93
2022-12-09T01:13:10.131Z,-1.92
2022-12-09T01:15:38.161Z,-1.96
2022-12-09T01:18:05.304Z,-1.93
2022-12-09T01:20:34.807Z,-1.88
2022-12-09T01:23:02.033Z,-1.84
2022-12-09T01:25:28.910Z,-1.84
2022-12-09T01:27:55.580Z,-1.73
2022-12-09T01:30:22.209Z,-1.78
2022-12-09T01:32:48.951Z,-1.83
2022-12-09T01:35:16.115Z,-1.87
2022-12-09T01:37:42.782Z,-1.88
2022-12-09T01:40:16.833Z,-1.86
2022-12-09T01:42:44.956Z,-1.97
2022-12-09T01:45:23.724Z,-1.95
2022-12-09T01:48:15.117Z,-1.97
2022-12-09T01:50:58.928Z,-2.00
2022-12-09T01:53:29.610Z,-2.06
2022-12-09T01:56:00.906Z,-2.16
2022-12-09T01:58:28.493Z,-2.20
2022-12-09T02:00:55.557Z,-2.14
2022-12-09T02:03:22.505Z,-2.08
2022-12-09T02:05:49.307Z,-2.09
2022-12-09T02:08:19.375Z,-2.11
2022-12-09T02:11:31.513Z,-2.14
2022-12-09T02:14:08.444Z,-2.20
2022-12-09T02:16:43.352Z,-2.18
2022-12-09T02:19:30.260Z,-2.13
2022-12-09T02:22:00.693Z,-2.20
2022-12-09T02:24:52.317Z,-2.22
2022-12-09T02:27:37.724Z,-2.13
2022-12-09T02:30:22.644Z,-2.14
2022-12-09T02:32:54.006Z,-2.08
2022-12-09T02:35:42.764Z,-2.05
2022-12-09T02:38:16.936Z,-2.01
2022-12-09T02:41:04.259Z,-2.01
2022-12-09T02:43:37.990Z,-1.97
2022-12-09T02:46:08.541Z,-1.98
2022-12-09T02:48:41.122Z,-1.97
2022-12-09T02:51:10.750Z,-1.98
2022-12-09T02:53:40.171Z,-1.99
2022-12-09T02:56:08.604Z,-2.05
2022-12-09T02:58:35.308Z,-2.09
2022-12-09T03:01:02.226Z,-2.06
2022-12-09T03:03:33.768Z,-2.02
2022-12-09T03:06:08.836Z,-2.06
2022-12-09T03:08:52.556Z,-2.08
2022-12-09T03:11:21.988Z,-2.06
2022-12-09T03:14:04.053Z,-2.07
2022-12-09T03:16:42.535Z,-2.15
2022-12-09T03:19:36.870Z,-2.11
2022-12-09T03:22:09.763Z,-2.15
2022-12-09T03:24:41.831Z,-2.03
2022-12-09T03:27:12.760Z,-2.11
2022-12-09T03:29:42.759Z,-2.17
2022-12-09T03:32:12.027Z,-2.17
2022-12-09T03:34:43.108Z,-2.18
2022-12-09T03:37:12.117Z,-2.26
2022-12-09T03:39:40.814Z,-2.22
2022-12-09T03:42:17.803Z,-2.25
2022-12-09T03:44:56.073Z,-2.35
2022-12-09T03:47:23.023Z,-2.34
2022-12-09T03:49:50.003Z,-2.35
2022-12-09T03:52:31.561Z,-2.37
2022-12-09T03:55:04.411Z,-2.33
2022-12-09T03:57:32.507Z,-2.46
2022-12-09T04:00:01.672Z,-2.47
2022-12-09T04:02:29.324Z,-2.47
2022-12-09T04:04:56.876Z,-2.52
2022-12-09T04:07:24.288Z,-2.52
2022-12-09T04:09:51.263Z,-2.50
2022-12-09T04:12:18.274Z,-2.53
2022-12-09T04:14:45.092Z,-2.52
2022-12-09T04:17:12.211Z,-2.48
2022-12-09T04:19:38.951Z,-2.46
2022-12-09T04:22:05.653Z,-2.40
2022-12-09T04:24:32.425Z,-2.31
2022-12-09T04:26:58.990Z,-2.36
2022-12-09T04:29:25.969Z,-2.45
2022-12-09T04:31:52.673Z,-2.51
2022-12-09T04:34:19.353Z,-2.49
2022-12-09T04:36:46.206Z,-2.38
2022-12-09T04:39:12.853Z,-2.30
2022-12-09T04:41:39.723Z,-2.26
2022-12-09T04:44:06.534Z,-2.24
2022-12-09T04:46:33.417Z,-2.23
2022-12-09T04:49:00.568Z,-2.21
2022-12-09T04:51:27.418Z,-2.18
2022-12-09T04:53:53.982Z,-2.14
2022-12-09T04:56:22.278Z,-2.07
2022-12-09T04:58:50.169Z,-2.01
2022-12-09T05:01:28.471Z,-2.01
2022-12-09T05:03:57.618Z,-2.02
2022-12-09T05:06:25.142Z,-1.94
2022-12-09T05:08:52.640Z,-1.95
2022-12-09T05:11:20.802Z,-1.97
2022-12-09T05:13:47.935Z,-1.93
2022-12-09T05:16:17.498Z,-1.92
2022-12-09T05:18:45.934Z,-1.92
2022-12-09T05:21:15.390Z,-1.90
2022-12-09T05:23:42.977Z,-1.80
2022-12-09T05:26:12.536Z,-1.90
2022-12-09T05:28:39.592Z,-1.92
2022-12-09T05:31:11.067Z,-1.95
2022-12-09T05:33:38.027Z,-1.95
2022-12-09T05:36:09.945Z,-1.93
2022-12-09T05:38:36.597Z,-2.06
2022-12-09T05:41:03.425Z,-2.16
2022-12-09T05:43:31.698Z,-2.16
2022-12-09T05:45:59.611Z,-2.20
2022-12-09T05:48:26.535Z,-2.28
2022-12-09T05:51:02.060Z,-2.34
2022-12-09T05:53:29.265Z,-2.38
2022-12-09T05:55:56.456Z,-2.44
2022-12-09T05:58:23.501Z,-2.43
2022-12-09T06:00:50.841Z,-2.42
2022-12-09T06:03:17.872Z,-2.43
2022-12-09T06:05:45.070Z,-2.39
2022-12-09T06:08:12.128Z,-2.29
2022-12-09T06:10:41.229Z,-2.16
2022-12-09T06:13:08.629Z,-2.15
2022-12-09T06:15:36.014Z,-2.06
2022-12-09T06:18:03.380Z,-2.05
2022-12-09T06:20:30.643Z,-1.99
2022-12-09T06:22:57.587Z,-2.07
2022-12-09T06:25:24.690Z,-2.16
2022-12-09T06:27:53.191Z,-2.17
2022-12-09T06:30:20.004Z,-2.09
2022-12-09T06:32:47.429Z,-2.07
2022-12-09T06:35:15.302Z,-2.05
2022-12-09T06:37:42.353Z,-2.07
2022-12-09T06:40:10.133Z,-2.05
2022-12-09T06:42:37.571Z,-2.03
2022-12-09T06:45:05.016Z,-2.07
2022-12-09T06:47:32.792Z,-2.07
2022-12-09T06:50:06.571Z,-2.17
2022-12-09T06:52:34.326Z,-2.19
2022-12-09T06:55:01.547Z,-2.16
2022-12-09T06:57:28.693Z,-2.10
2022-12-09T06:59:55.660Z,-2.14
2022-12-09T07:02:22.869Z,-2.15
2022-12-09T07:04:55.821Z,-2.16
2022-12-09T07:07:23.329Z,-2.20
2022-12-09T07:09:50.352Z,-2.15
2022-12-09T07:12:17.968Z,-2.18
2022-12-09T07:14:45.063Z,-2.11
2022-12-09T07:17:19.965Z,-2.12
2022-12-09T07:19:47.361Z,-2.09
2022-12-09T07:22:14.613Z,-2.02
2022-12-09T07:24:41.262Z,-1.99
2022-12-09T07:27:14.276Z,-2.00
2022-12-09T07:29:44.484Z,-1.93
2022-12-09T07:32:11.841Z,-1.90
2022-12-09T07:34:39.606Z,-1.89
2022-12-09T07:37:06.510Z,-1.79
2022-12-09T07:39:33.599Z,-1.80
2022-12-09T07:42:00.349Z,-1.74
2022-12-09T07:44:30.337Z,-1.76
2022-12-09T07:46:57.509Z,-1.82
2022-12-09T07:49:24.950Z,-1.82
2022-12-09T07:51:52.152Z,-1.82
2022-12-09T07:54:19.935Z,-1.82
2022-12-09T07:56:47.268Z,-1.78
2022-12-09T07:59:15.541Z,-1.88
2022-12-09T08:01:43.835Z,-1.88
2022-12-09T08:04:11.210Z,-1.76
2022-12-09T08:06:39.112Z,-1.70
2022-12-09T08:09:09.312Z,-1.66
2022-12-09T08:11:36.810Z,-1.59
2022-12-09T08:14:11.396Z,-1.61
2022-12-09T08:16:41.593Z,-1.64
2022-12-09T08:19:09.195Z,-1.61
2022-12-09T08:21:36.281Z,-1.63
2022-12-09T08:24:06.040Z,-1.72
2022-12-09T08:26:34.048Z,-1.60
2022-12-09T08:29:01.157Z,-1.57
2022-12-09T08:31:28.958Z,-1.56
2022-12-09T08:33:57.051Z,-1.46
2022-12-09T08:36:26.661Z,-1.55
2022-12-09T08:38:54.550Z,-1.56
2022-12-09T08:41:37.518Z,-1.55
2022-12-09T08:44:09.691Z,-1.36
2022-12-09T08:46:39.094Z,-1.37
2022-12-09T08:49:07.331Z,-1.37
2022-12-09T08:51:34.937Z,-1.38
2022-12-09T08:54:02.608Z,-1.33
2022-12-09T08:56:29.967Z,-1.35
2022-12-09T08:58:57.391Z,-1.32
2022-12-09T09:01:32.298Z,-1.42
2022-12-09T09:04:08.532Z,-1.24
2022-12-09T09:06:37.677Z,-1.27
2022-12-09T09:09:07.192Z,-1.19
2022-12-09T09:11:35.478Z,-1.23
2022-12-09T09:14:05.653Z,-1.07
2022-12-09T09:16:32.991Z,-1.05
2022-12-09T09:19:00.292Z,-1.06
2022-12-09T09:21:27.299Z,-1.06
2022-12-09T09:23:54.838Z,-1.01
2022-12-09T09:26:24.148Z,-1.04
2022-12-09T09:28:51.835Z,-1.05
2022-12-09T09:31:21.351Z,-1.09
2022-12-09T09:33:49.133Z,-0.97
2022-12-09T09:36:20.802Z,-1.01
2022-12-09T09:38:49.127Z,-0.88
2022-12-09T09:41:23.951Z,-0.77
2022-12-09T09:43:51.825Z,-0.68
2022-12-09T09:46:43.260Z,-0.88
2022-12-09T09:49:34.800Z,-0.99
2022-12-09T09:52:08.664Z,-0.96
2022-12-09T09:54:36.329Z,-0.92
2022-12-09T09:57:13.326Z,-0.91
2022-12-09T10:00:03.401Z,-0.94
2022-12-09T10:02:58.267Z,-0.82
2022-12-09T10:05:35.963Z,-0.80
2022-12-09T10:08:32.400Z,-0.80
2022-12-09T10:11:21.101Z,-0.86
2022-12-09T10:13:55.196Z,-0.89
2022-12-09T10:16:49.735Z,-0.67
2022-12-09T10:19:19.744Z,-0.67
2022-12-09T10:21:48.994Z,-0.67
2022-12-09T10:24:24.201Z,-0.60
2022-12-09T10:27:03.660Z,-0.70
2022-12-09T10:29:53.582Z,-0.61
2022-12-09T10:32:22.293Z,-0.74
2022-12-09T10:34:49.596Z,-0.72
2022-12-09T10:37:29.998Z,-0.80
2022-12-09T10:40:32.998Z,-0.79
2022-12-09T10:43:18.551Z,-0.79
2022-12-09T10:48:47.459Z,-0.79
2022-12-09T10:51:31.149Z,-0.81
2022-12-09T10:54:02.787Z,-0.73
2022-12-09T10:56:35.859Z,-0.65
2022-12-09T10:59:19.564Z,-0.54
2022-12-09T11:01:49.719Z,-0.49
2022-12-09T11:04:23.983Z,-0.49
2022-12-09T11:06:58.727Z,-0.37
2022-12-09T11:09:33.487Z,-0.31
2022-12-09T11:12:02.242Z,-0.35
2022-12-09T11:14:39.030Z,-0.45
2022-12-09T11:17:14.442Z,-0.39
2022-12-09T11:19:42.732Z,-0.38
2022-12-09T11:22:39.586Z,-0.31
2022-12-09T11:25:12.989Z,-0.28
2022-12-09T11:27:53.121Z,-0.39
2022-12-09T11:30:27.556Z,-0.47
2022-12-09T11:33:29.822Z,-0.44
2022-12-09T11:36:19.809Z,-0.40
2022-12-09T11:38:49.807Z,-0.26
2022-12-09T11:41:41.324Z,-0.14
2022-12-09T11:44:30.093Z,-0.39
2022-12-09T11:47:09.299Z,-0.48
2022-12-09T11:49:51.127Z,-0.41
2022-12-09T11:52:17.686Z,-0.42
2022-12-09T11:54:58.093Z,-0.26
2022-12-09T11:57:36.273Z,-0.25
2022-12-09T12:00:14.681Z,-0.23
2022-12-09T12:02:47.509Z,-0.20
2022-12-09T12:05:21.664Z,-0.20
2022-12-09T12:08:13.670Z,-0.15
2022-12-09T12:10:44.726Z,-0.15
2022-12-09T12:13:23.837Z,-0.30
2022-12-09T12:16:14.338Z,-0.39
2022-12-09T12:18:56.008Z,-0.27
2022-12-09T12:21:39.840Z,-0.17
2022-12-09T12:24:37.266Z,-0.11
2022-12-09T12:27:31.888Z,-0.05
2022-12-09T12:30:08.506Z,-0.11
2022-12-09T12:36:25.979Z,-0.18
2022-12-09T12:39:04.908Z,-0.18
2022-12-09T12:42:05.763Z,-0.17
2022-12-09T12:44:55.812Z,-0.07
2022-12-09T12:47:38.585Z,-0.07
2022-12-09T12:50:26.800Z,-0.04
2022-12-09T12:53:18.231Z,-0.16
2022-12-09T12:56:07.991Z,-0.05
2022-12-09T12:58:46.042Z,-0.22
2022-12-09T13:01:25.538Z,-0.19
2022-12-09T13:04:14.071Z,-0.07
2022-12-09T13:07:09.060Z,-0.12
2022-12-09T13:09:59.394Z,-0.07
2022-12-09T13:12:50.584Z,-0.02
2022-12-09T13:15:21.420Z,-0.13
2022-12-09T13:17:49.412Z,-0.16
2022-12-09T13:20:33.532Z,-0.17
2022-12-09T13:23:07.063Z,-0.18
2022-12-09T13:25:54.572Z,-0.12
2022-12-09T13:28:38.717Z,-0.15
2022-12-09T13:31:09.488Z,-0.18
2022-12-09T13:34:00.035Z,-0.10
2022-12-09T13:36:36.633Z,-0.12
2022-12-09T13:39:04.044Z,-0.06
2022-12-09T13:41:30.545Z,-0.06
2022-12-09T13:43:58.209Z,-0.08
2022-12-09T13:46:28.373Z,-0.02
2022-12-09T13:48:55.286Z,-0.05
2022-12-09T13:51:23.224Z,-0.06
2022-12-09T13:54:00.639Z,-0.09
2022-12-09T13:56:36.656Z,-0.13
2022-12-09T13:59:20.272Z,-0.14
2022-12-09T14:01:52.704Z,-0.13
2022-12-09T14:04:23.423Z,-0.13
2022-12-09T14:06:55.913Z,-0.18
2022-12-09T14:09:49.055Z,-0.15
2022-12-09T14:12:32.584Z,-0.14
2022-12-09T14:15:01.478Z,-0.13
2022-12-09T14:17:30.894Z,-0.14
2022-12-09T14:20:15.178Z,-0.08
2022-12-09T14:22:42.211Z,-0.13
2022-12-09T14:25:28.210Z,-0.16
2022-12-09T14:28:10.148Z,-0.10
2022-12-09T14:30:47.607Z,-0.19
2022-12-09T14:33:33.996Z,-0.16
2022-12-09T14:36:27.087Z,-0.21
2022-12-09T14:39:27.812Z,-0.23
2022-12-09T14:41:58.558Z,-0.27
2022-12-09T14:44:49.404Z,-0.35
2022-12-09T14:47:22.635Z,-0.35
2022-12-09T14:49:52.114Z,-0.32
2022-12-09T14:52:30.057Z,-0.34
2022-12-09T14:54:59.955Z,-0.36
2022-12-09T14:57:47.853Z,-0.48
2022-12-09T15:00:34.526Z,-0.47
2022-12-09T15:03:31.404Z,-0.52
2022-12-09T15:05:59.058Z,-0.63
2022-12-09T15:08:37.476Z,-0.55
2022-12-09T15:11:13.264Z,-0.57
2022-12-09T15:13:43.773Z,-0.55
2022-12-09T15:16:13.850Z,-0.49
2022-12-09T15:18:42.335Z,-0.53
2022-12-09T15:21:09.385Z,-0.54
2022-12-09T15:23:40.182Z,-0.61
2022-12-09T15:26:18.206Z,-0.63
2022-12-09T15:28:48.303Z,-0.59
2022-12-09T15:31:20.725Z,-0.61
2022-12-09T15:33:50.486Z,-0.63
2022-12-09T15:36:23.552Z,-0.69
2022-12-09T15:39:04.837Z,-0.62
2022-12-09T15:42:05.416Z,-0.63
2022-12-09T15:44:57.202Z,-0.62
2022-12-09T15:47:34.984Z,-0.67
2022-12-09T15:50:04.812Z,-0.60
2022-12-09T15:52:44.932Z,-0.66
2022-12-09T15:55:17.202Z,-0.63
2022-12-09T15:57:44.944Z,-0.56
2022-12-09T16:00:12.147Z,-0.55
2022-12-09T16:02:40.510Z,-0.55
2022-12-09T16:05:09.435Z,-0.54
2022-12-09T16:07:37.101Z,-0.58
2022-12-09T16:10:13.156Z,-0.55
2022-12-09T16:12:41.432Z,-0.59
2022-12-09T16:15:13.788Z,-0.61
2022-12-09T16:17:55.529Z,-0.57
2022-12-09T16:20:35.671Z,-0.52
2022-12-09T16:23:04.598Z,-0.51
2022-12-09T16:25:44.593Z,-0.53
2022-12-09T16:28:26.635Z,-0.50
2022-12-09T16:30:59.072Z,-0.55
2022-12-09T16:33:26.282Z,-0.53
2022-12-09T16:36:18.549Z,-0.53
2022-12-09T16:39:18.120Z,-0.52
2022-12-09T16:41:50.851Z,-0.55
2022-12-09T16:44:31.420Z,-0.60
2022-12-09T16:47:13.247Z,-0.62
2022-12-09T16:49:41.253Z,-0.57
2022-12-09T16:52:12.253Z,-0.55
2022-12-09T16:54:38.932Z,-0.59
2022-12-09T16:57:05.608Z,-0.61
2022-12-09T16:59:37.843Z,-0.55
2022-12-09T17:02:18.149Z,-0.55
2022-12-09T17:04:45.145Z,-0.59
2022-12-09T17:07:11.977Z,-0.62
2022-12-09T17:09:38.521Z,-0.62
2022-12-09T17:12:05.396Z,-0.61
2022-12-09T17:14:32.408Z,-0.61
2022-12-09T17:17:00.179Z,-0.64
2022-12-09T17:19:26.764Z,-0.60
2022-12-09T17:21:53.435Z,-0.56
2022-12-09T17:24:20.867Z,-0.56
2022-12-09T17:26:47.461Z,-0.58
2022-12-09T17:29:14.052Z,-0.61
2022-12-09T17:31:40.714Z,-0.60
2022-12-09T17:34:07.392Z,-0.59
2022-12-09T17:36:34.013Z,-0.56
2022-12-09T17:39:02.621Z,-0.58
2022-12-09T17:41:29.235Z,-0.56
2022-12-09T17:43:57.822Z,-0.57
2022-12-09T17:46:24.780Z,-0.55
2022-12-09T17:48:51.512Z,-0.54
2022-12-09T17:51:18.116Z,-0.53
2022-12-09T17:53:46.456Z,-0.54
2022-12-09T17:56:19.722Z,-0.53
2022-12-09T17:58:47.341Z,-0.56
2022-12-09T18:01:17.264Z,-0.50
2022-12-09T18:03:56.436Z,-0.53
2022-12-09T18:06:27.519Z,-0.57
2022-12-09T18:08:54.536Z,-0.47
2022-12-09T18:11:22.360Z,-0.52
2022-12-09T18:13:50.117Z,-0.55
2022-12-09T18:16:17.032Z,-0.54
2022-12-09T18:18:43.683Z,-0.54
2022-12-09T18:21:15.354Z,-0.56
2022-12-09T18:23:42.936Z,-0.53
2022-12-09T18:26:12.554Z,-0.46
2022-12-09T18:28:40.060Z,-0.51
2022-12-09T18:31:12.421Z,-0.55
2022-12-09T18:33:39.359Z,-0.57
2022-12-09T18:36:12.377Z,-0.55
2022-12-09T18:38:39.650Z,-0.55
2022-12-09T18:41:14.549Z,-0.55
2022-12-09T18:43:43.105Z,-0.59
2022-12-09T18:46:16.352Z,-0.53
2022-12-09T18:48:44.911Z,-0.59
2022-12-09T18:51:21.129Z,-0.59
2022-12-09T18:53:48.582Z,-0.57
2022-12-09T18:56:16.271Z,-0.57
2022-12-09T18:59:05.519Z,-0.59
2022-12-09T19:01:32.007Z,-0.54
2022-12-09T19:04:01.224Z,-0.73
2022-12-09T19:06:31.481Z,-0.77
2022-12-09T19:09:07.489Z,-0.81
2022-12-09T19:11:37.048Z,-0.87
2022-12-09T19:14:05.136Z,-0.89
2022-12-09T19:16:32.243Z,-0.93
2022-12-09T19:19:03.812Z,-0.95
2022-12-09T19:21:34.486Z,-0.90
2022-12-09T19:24:01.033Z,-0.91
2022-12-09T19:26:32.633Z,-0.82
2022-12-09T19:29:13.556Z,-0.79
2022-12-09T19:31:43.173Z,-0.75
2022-12-09T19:34:24.767Z,-0.79
2022-12-09T19:36:53.843Z,-0.89
2022-12-09T19:39:29.941Z,-0.89
2022-12-09T19:41:57.981Z,-0.85
2022-12-09T19:44:52.669Z,-0.84
2022-12-09T19:47:13.046Z,-0.84
2022-12-09T19:49:41.362Z,-0.87
2022-12-09T19:52:07.966Z,-0.86
2022-12-09T19:54:34.533Z,-0.84
2022-12-09T19:57:01.316Z,-0.88
2022-12-09T19:59:28.432Z,-0.93
2022-12-09T20:01:55.458Z,-1.00
2022-12-09T20:07:10.758Z,-0.87
2022-12-09T20:09:37.854Z,-0.79
2022-12-09T20:12:05.024Z,-0.77
2022-12-09T20:14:31.794Z,-0.78
2022-12-09T20:16:58.399Z,-0.78
2022-12-09T20:19:25.067Z,-0.76
2022-12-09T20:21:51.665Z,-0.80
2022-12-09T20:24:18.268Z,-0.78
2022-12-09T20:26:44.939Z,-0.80
2022-12-09T20:29:11.838Z,-0.85
2022-12-09T20:31:39.026Z,-0.84
2022-12-09T20:34:12.810Z,-0.84
2022-12-09T20:36:41.744Z,-0.92
2022-12-09T20:39:13.063Z,-0.88
2022-12-09T20:41:41.668Z,-0.84
2022-12-09T20:44:09.883Z,-0.86
2022-12-09T20:46:36.855Z,-0.90
2022-12-09T20:49:03.473Z,-0.93
2022-12-09T20:51:38.252Z,-0.86
2022-12-09T20:54:05.977Z,-0.84
2022-12-09T20:56:32.893Z,-0.83
2022-12-09T20:58:59.997Z,-0.81
2022-12-09T21:01:32.658Z,-0.85
2022-12-09T21:04:01.219Z,-0.80
2022-12-09T21:06:31.199Z,-0.80
2022-12-09T21:09:03.027Z,-0.77
2022-12-09T21:11:29.457Z,-0.79
2022-12-09T21:14:01.264Z,-0.77
2022-12-09T21:16:30.338Z,-0.78
2022-12-09T21:18:59.647Z,-0.79
2022-12-09T21:21:29.255Z,-0.69
2022-12-09T21:23:56.240Z,-0.67
2022-12-09T21:26:24.329Z,-0.74
2022-12-09T21:28:51.979Z,-0.69
2022-12-09T21:31:24.472Z,-0.70
2022-12-09T21:33:53.327Z,-0.73
2022-12-09T21:36:24.032Z,-0.73
2022-12-09T21:38:51.346Z,-0.72
2022-12-09T21:41:21.376Z,-0.75
2022-12-09T21:43:48.029Z,-0.71
2022-12-09T21:46:23.246Z,-0.65
2022-12-09T21:48:52.528Z,-0.74
2022-12-09T21:51:20.809Z,-0.63
2022-12-09T21:53:48.811Z,-0.59
2022-12-09T21:56:24.207Z,-0.60
2022-12-09T21:58:53.017Z,-0.60
2022-12-09T22:01:26.699Z,-0.64
2022-12-09T22:03:55.152Z,-0.69
2022-12-09T22:06:22.088Z,-0.67
2022-12-09T22:08:49.299Z,-0.71
2022-12-09T22:11:24.390Z,-0.76
2022-12-09T22:13:52.102Z,-0.80
2022-12-09T22:16:21.327Z,-0.80
2022-12-09T22:18:48.515Z,-0.83
2022-12-09T22:21:26.695Z,-0.89
2022-12-09T22:23:55.245Z,-0.87
2022-12-09T22:26:22.742Z,-0.82
2022-12-09T22:28:50.125Z,-0.80
2022-12-09T22:31:24.260Z,-0.84
2022-12-09T22:33:53.619Z,-0.82
2022-12-09T22:36:20.632Z,-0.76
2022-12-09T22:38:48.134Z,-0.70
2022-12-09T22:41:20.256Z,-0.70
2022-12-09T22:43:48.859Z,-0.71
2022-12-09T22:46:24.053Z,-0.70
2022-12-09T22:48:51.045Z,-0.71
2022-12-09T22:51:24.570Z,-0.67
2022-12-09T22:53:53.635Z,-0.70
2022-12-09T22:56:20.807Z,-0.63
2022-12-09T22:58:48.106Z,-0.64
2022-12-09T23:01:17.521Z,-0.67
2022-12-09T23:03:44.458Z,-0.65
2022-12-09T23:06:12.047Z,-0.70
2022-12-09T23:08:40.369Z,-0.74
2022-12-09T23:11:12.305Z,-0.68
2022-12-09T23:13:41.361Z,-0.69
2022-12-09T23:16:12.464Z,-0.69
2022-12-09T23:18:40.273Z,-0.61
2022-12-09T23:21:13.476Z,-0.61
2022-12-09T23:23:41.042Z,-0.60
2022-12-09T23:26:11.928Z,-0.55
2022-12-09T23:28:40.804Z,-0.49
2022-12-09T23:31:10.115Z,-0.50
2022-12-09T23:33:38.927Z,-0.47
2022-12-09T23:36:11.505Z,-0.44
2022-12-09T23:38:38.273Z,-0.46
2022-12-09T23:41:05.624Z,-0.43
2022-12-09T23:43:34.268Z,-0.47
2022-12-09T23:46:15.853Z,-0.50
2022-12-09T23:48:44.291Z,-0.42
2022-12-09T23:51:16.711Z,-0.41
2022-12-09T23:53:45.324Z,-0.45
2022-12-09T23:56:14.101Z,-0.47
2022-12-09T23:58:41.269Z,-0.49
